Time,TemperatureF,DewpointF,PressureIn,WindDirection,WindDirectionDegrees,WindSpeedMPH,WindSpeedGustMPH,Humidity,HourlyPrecipIn,Conditions,Clouds,dailyrainin,SoftwareType,DateUTC
2013-10-19 00:02:00,50.3,47.0,30.02,WSW,256,1.0,-999.0,89,-99.99,,,0.00,weatherlink.com 1.10,2013-10-19 04:02:00,
2013-10-19 00:17:00,50.5,47.0,30.02,WSW,256,0.0,-999.0,88,-99.99,,,0.00,weatherlink.com 1.10,2013-10-19 04:17:00,
2013-10-19 00:32:00,50.3,47.0,30.01,WSW,257,1.0,-999.0,89,-99.99,,,0.00,weatherlink.com 1.10,2013-10-19 04:32:00,
2013-10-19 00:47:00,50.3,47.0,30.01,WSW,257,0.0,-999.0,89,-99.99,,,0.00,weatherlink.com 1.10,2013-10-19 04:47:00,
2013-10-19 01:02:00,50.3,47.0,30.00,WSW,249,0.0,-999.0,89,-99.99,,,0.00,weatherlink.com 1.10,2013-10-19 05:02:00,
2013-10-19 01:17:00,50.3,47.0,30.00,WSW,237,0.0,-999.0,89,-99.99,,,0.00,weatherlink.com 1.10,2013-10-19 05:17:00,
2013-10-19 01:32:00,50.4,47.0,29.99,WSW,256,1.0,-999.0,89,-99.99,,,0.00,weatherlink.com 1.10,2013-10-19 05:32:00,
2013-10-19 01:47:00,51.3,48.0,30.00,WSW,256,0.0,-999.0,87,-99.99,,,0.00,weatherlink.com 1.10,2013-10-19 05:47:00,
2013-10-19 02:02:00,50.5,47.0,30.00,WSW,256,0.0,-999.0,89,-99.99,,,0.00,weatherlink.com 1.10,2013-10-19 06:02:00,
2013-10-19 02:17:00,50.5,47.0,29.99,WSW,256,2.0,-999.0,89,-99.99,,,0.00,weatherlink.com 1.10,2013-10-19 06:17:00,
2013-10-19 02:32:00,49.9,47.0,29.98,SW,236,1.0,-999.0,90,-99.99,,,0.00,weatherlink.com 1.10,2013-10-19 06:32:00,
2013-10-19 02:47:00,49.6,47.0,29.98,WSW,257,0.0,-999.0,91,-99.99,,,0.00,weatherlink.com 1.10,2013-10-19 06:47:00,
2013-10-19 03:02:00,50.2,47.0,29.99,WSW,257,0.0,-999.0,90,-99.99,,,0.00,weatherlink.com 1.10,2013-10-19 07:02:00,
2013-10-19 03:17:00,50.8,48.0,29.97,WSW,257,0.0,-999.0,89,-99.99,,,0.00,weatherlink.com 1.10,2013-10-19 07:17:00,
2013-10-19 03:32:00,51.2,48.0,29.97,WSW,257,0.0,-999.0,88,-99.99,,,0.00,weatherlink.com 1.10,2013-10-19 07:32:00,
2013-10-19 03:47:00,50.4,48.0,29.97,WSW,255,0.0,-999.0,90,-99.99,,,0.00,weatherlink.com 1.10,2013-10-19 07:47:00,
2013-10-19 04:02:00,50.1,47.0,29.97,SW,222,1.0,-999.0,90,-99.99,,,0.00,weatherlink.com 1.10,2013-10-19 08:02:00,
2013-10-19 04:17:00,50.6,48.0,29.97,SW,227,0.0,-999.0,90,-99.99,,,0.00,weatherlink.com 1.10,2013-10-19 08:17:00,
2013-10-19 04:32:00,50.3,48.0,29.95,WSW,258,1.0,-999.0,91,-99.99,,,0.00,weatherlink.com 1.10,2013-10-19 08:32:00,
2013-10-19 04:47:00,50.4,48.0,29.95,WSW,258,0.0,-999.0,91,-99.99,,,0.00,weatherlink.com 1.10,2013-10-19 08:47:00,
2013-10-19 05:02:00,50.2,48.0,29.95,WSW,258,0.0,-999.0,91,-99.99,,,0.00,weatherlink.com 1.10,2013-10-19 09:02:00,
2013-10-19 05:17:00,50.3,48.0,29.95,WSW,258,0.0,-999.0,92,-99.99,,,0.00,weatherlink.com 1.10,2013-10-19 09:17:00,
2013-10-19 05:32:00,50.8,48.0,29.96,WSW,258,0.0,-999.0,91,-99.99,,,0.00,weatherlink.com 1.10,2013-10-19 09:32:00,
2013-10-19 05:47:00,51.3,49.0,29.96,WSW,258,0.0,-999.0,90,-99.99,,,0.00,weatherlink.com 1.10,2013-10-19 09:47:00,
2013-10-19 06:02:00,51.2,48.0,29.95,WSW,258,0.0,-999.0,90,-99.99,,,0.00,weatherlink.com 1.10,2013-10-19 10:02:00,
2013-10-19 06:17:00,51.2,49.0,29.95,WSW,258,0.0,-999.0,92,-99.99,,,0.00,weatherlink.com 1.10,2013-10-19 10:17:00,
2013-10-19 06:32:00,51.3,49.0,29.95,WSW,258,0.0,-999.0,91,-99.99,,,0.00,weatherlink.com 1.10,2013-10-19 10:32:00,
2013-10-19 06:47:00,51.4,49.0,29.94,WSW,258,0.0,-999.0,92,-99.99,,,0.00,weatherlink.com 1.10,2013-10-19 10:47:00,
2013-10-19 07:02:00,51.5,49.0,29.95,WSW,258,0.0,-999.0,91,-99.99,,,0.00,weatherlink.com 1.10,2013-10-19 11:02:00,
2013-10-19 07:17:00,52.0,49.0,29.93,WSW,258,0.0,-999.0,90,-99.99,,,0.00,weatherlink.com 1.10,2013-10-19 11:17:00,
2013-10-19 07:32:00,51.7,49.0,29.95,WSW,258,0.0,-999.0,90,-99.99,,,0.00,weatherlink.com 1.10,2013-10-19 11:32:00,
2013-10-19 07:47:00,51.6,49.0,29.94,WSW,258,0.0,-999.0,89,-99.99,,,0.00,weatherlink.com 1.10,2013-10-19 11:47:00,
2013-10-19 08:02:00,51.9,49.0,29.95,WSW,258,0.0,-999.0,89,-99.99,,,0.00,weatherlink.com 1.10,2013-10-19 12:02:00,
2013-10-19 08:17:00,51.8,49.0,29.95,WSW,258,0.0,-999.0,89,-99.99,,,0.00,weatherlink.com 1.10,2013-10-19 12:17:00,
2013-10-19 08:32:00,51.8,49.0,29.96,NW,321,0.0,-999.0,90,-99.99,,,0.00,weatherlink.com 1.10,2013-10-19 12:32:00,
2013-10-19 08:47:00,52.3,49.0,29.95,WSW,252,0.0,-999.0,88,-99.99,,,0.00,weatherlink.com 1.10,2013-10-19 12:47:00,
2013-10-19 09:02:00,52.3,49.0,29.96,WSW,252,0.0,-999.0,87,-99.99,,,0.00,weatherlink.com 1.10,2013-10-19 13:02:00,
2013-10-19 09:17:00,52.9,49.0,29.95,WSW,252,0.0,-999.0,85,-99.99,,,0.00,weatherlink.com 1.10,2013-10-19 13:17:00,
2013-10-19 09:32:00,53.4,48.0,29.98,SSW,202,1.0,-999.0,83,-99.99,,,0.00,weatherlink.com 1.10,2013-10-19 13:32:00,
2013-10-19 09:47:00,53.6,49.0,29.98,SSE,156,0.0,-999.0,84,-99.99,,,0.00,weatherlink.com 1.10,2013-10-19 13:47:00,
2013-10-19 10:02:00,53.7,49.0,29.97,ESE,107,0.0,-999.0,85,-99.99,,,0.00,weatherlink.com 1.10,2013-10-19 14:02:00,
2013-10-19 10:17:00,53.6,50.0,29.97,SW,218,0.0,-999.0,86,-99.99,,,0.00,weatherlink.com 1.10,2013-10-19 14:17:00,
2013-10-19 10:32:00,54.2,51.0,29.97,SW,217,0.0,-999.0,89,-99.99,,,0.00,weatherlink.com 1.10,2013-10-19 14:32:00,
2013-10-19 10:47:00,53.4,51.0,29.98,SSE,167,0.0,-999.0,90,-99.99,,,0.00,weatherlink.com 1.10,2013-10-19 14:47:00,
2013-10-19 11:02:00,54.3,50.0,29.97,SSE,161,0.0,-999.0,86,-99.99,,,0.00,weatherlink.com 1.10,2013-10-19 15:02:00,
2013-10-19 11:17:00,54.3,51.0,29.98,SE,143,1.0,-999.0,87,-99.99,,,0.00,weatherlink.com 1.10,2013-10-19 15:17:00,
2013-10-19 11:32:00,54.3,50.0,29.99,WSW,247,0.0,-999.0,84,-99.99,,,0.00,weatherlink.com 1.10,2013-10-19 15:32:00,
2013-10-19 11:47:00,55.0,50.0,30.00,ENE,59,5.0,-999.0,82,-99.99,,,0.00,weatherlink.com 1.10,2013-10-19 15:47:00,
2013-10-19 12:02:00,55.1,49.0,29.98,SE,130,0.0,-999.0,81,-99.99,,,0.00,weatherlink.com 1.10,2013-10-19 16:02:00,
2013-10-19 12:17:00,55.4,49.0,29.98,SSE,164,9.0,-999.0,80,-99.99,,,0.00,weatherlink.com 1.10,2013-10-19 16:17:00,
2013-10-19 12:32:00,55.8,50.0,29.97,ESE,123,4.0,-999.0,82,-99.99,,,0.00,weatherlink.com 1.10,2013-10-19 16:32:00,
2013-10-19 12:47:00,56.9,51.0,29.97,SE,125,0.0,-999.0,81,-99.99,,,0.00,weatherlink.com 1.10,2013-10-19 16:47:00,
2013-10-19 13:02:00,57.5,51.0,29.97,ESE,123,0.0,-999.0,80,-99.99,,,0.00,weatherlink.com 1.10,2013-10-19 17:02:00,
2013-10-19 13:17:00,57.9,52.0,29.96,SSW,202,1.0,-999.0,80,-99.99,,,0.00,weatherlink.com 1.10,2013-10-19 17:17:00,
2013-10-19 13:32:00,58.1,52.0,29.96,SSE,166,5.0,-999.0,79,-99.99,,,0.00,weatherlink.com 1.10,2013-10-19 17:32:00,
2013-10-19 13:47:00,57.9,52.0,29.96,South,185,0.0,-999.0,80,-99.99,,,0.00,weatherlink.com 1.10,2013-10-19 17:47:00,
2013-10-19 14:02:00,58.4,52.0,29.96,WSW,240,1.0,-999.0,80,-99.99,,,0.00,weatherlink.com 1.10,2013-10-19 18:02:00,
2013-10-19 14:17:00,60.3,53.0,29.95,SSW,203,2.0,-999.0,77,-99.99,,,0.00,weatherlink.com 1.10,2013-10-19 18:17:00,
2013-10-19 14:32:00,61.5,54.0,29.94,SSW,197,5.0,-999.0,75,-99.99,,,0.00,weatherlink.com 1.10,2013-10-19 18:32:00,
2013-10-19 14:47:00,61.5,54.0,29.94,NE,55,4.0,-999.0,75,-99.99,,,0.00,weatherlink.com 1.10,2013-10-19 18:47:00,
2013-10-19 15:02:00,62.3,53.0,29.93,SW,223,0.0,-999.0,72,-99.99,,,0.00,weatherlink.com 1.10,2013-10-19 19:02:00,
2013-10-19 15:17:00,60.9,53.0,29.93,South,177,0.0,-999.0,75,-99.99,,,0.00,weatherlink.com 1.10,2013-10-19 19:17:00,
2013-10-19 15:32:00,61.3,53.0,29.93,WNW,285,2.0,-999.0,74,-99.99,,,0.00,weatherlink.com 1.10,2013-10-19 19:32:00,
2013-10-19 15:47:00,61.4,53.0,29.93,South,191,2.0,-999.0,73,-99.99,,,0.00,weatherlink.com 1.10,2013-10-19 19:47:00,
2013-10-19 16:02:00,61.1,53.0,29.93,WSW,239,5.0,-999.0,74,-99.99,,,0.00,weatherlink.com 1.10,2013-10-19 20:02:00,
2013-10-19 16:17:00,61.2,52.0,29.94,SSE,168,0.0,-999.0,73,-99.99,,,0.00,weatherlink.com 1.10,2013-10-19 20:17:00,
2013-10-19 16:32:00,62.1,53.0,29.94,South,189,0.0,-999.0,72,-99.99,,,0.00,weatherlink.com 1.10,2013-10-19 20:32:00,
2013-10-19 16:47:00,61.0,52.0,29.95,SE,143,2.0,-999.0,73,-99.99,,,0.00,weatherlink.com 1.10,2013-10-19 20:47:00,
2013-10-19 17:02:00,60.2,52.0,29.95,SW,229,5.0,-999.0,73,-99.99,,,0.00,weatherlink.com 1.10,2013-10-19 21:02:00,
2013-10-19 17:17:00,59.6,52.0,29.96,SSE,156,1.0,-999.0,75,-99.99,,,0.00,weatherlink.com 1.10,2013-10-19 21:17:00,
2013-10-19 17:32:00,59.3,51.0,29.96,ESE,112,0.0,-999.0,75,-99.99,,,0.00,weatherlink.com 1.10,2013-10-19 21:32:00,
2013-10-19 17:47:00,59.6,51.0,29.96,SE,126,2.0,-999.0,74,-99.99,,,0.00,weatherlink.com 1.10,2013-10-19 21:47:00,
2013-10-19 18:02:00,59.3,51.0,29.96,SE,125,2.0,-999.0,75,-99.99,,,0.00,weatherlink.com 1.10,2013-10-19 22:02:00,
2013-10-19 18:17:00,57.6,50.0,29.97,ENE,62,4.0,-999.0,77,-99.99,,,0.00,weatherlink.com 1.10,2013-10-19 22:17:00,
2013-10-19 18:32:00,56.4,50.0,29.97,ESE,114,0.0,-999.0,79,-99.99,,,0.00,weatherlink.com 1.10,2013-10-19 22:32:00,
2013-10-19 18:47:00,55.4,50.0,29.97,South,190,1.0,-999.0,81,-99.99,,,0.00,weatherlink.com 1.10,2013-10-19 22:47:00,
2013-10-19 19:02:00,54.7,50.0,29.98,ENE,77,0.0,-999.0,83,-99.99,,,0.00,weatherlink.com 1.10,2013-10-19 23:02:00,
2013-10-19 19:17:00,53.7,49.0,29.98,WSW,241,0.0,-999.0,84,-99.99,,,0.00,weatherlink.com 1.10,2013-10-19 23:17:00,
2013-10-19 19:32:00,53.0,48.0,29.99,East,94,0.0,-999.0,84,-99.99,,,0.00,weatherlink.com 1.10,2013-10-19 23:32:00,
2013-10-19 19:47:00,52.6,49.0,29.99,NE,43,4.0,-999.0,86,-99.99,,,0.00,weatherlink.com 1.10,2013-10-19 23:47:00,
2013-10-19 20:02:00,51.8,48.0,30.00,SW,217,1.0,-999.0,87,-99.99,,,0.00,weatherlink.com 1.10,2013-10-20 00:02:00,
2013-10-19 20:17:00,51.0,47.0,30.00,SSW,196,0.0,-999.0,87,-99.99,,,0.00,weatherlink.com 1.10,2013-10-20 00:17:00,
2013-10-19 20:32:00,50.2,47.0,30.00,SW,231,0.0,-999.0,87,-99.99,,,0.00,weatherlink.com 1.10,2013-10-20 00:32:00,
2013-10-19 20:47:00,49.7,46.0,30.00,WSW,252,0.0,-999.0,86,-99.99,,,0.00,weatherlink.com 1.10,2013-10-20 00:47:00,
2013-10-19 21:02:00,49.5,46.0,30.01,NNE,29,0.0,-999.0,87,-99.99,,,0.00,weatherlink.com 1.10,2013-10-20 01:02:00,
2013-10-19 21:17:00,49.5,46.0,30.01,NNE,27,0.0,-999.0,86,-99.99,,,0.00,weatherlink.com 1.10,2013-10-20 01:17:00,
2013-10-19 21:32:00,48.9,45.0,30.01,North,3,0.0,-999.0,85,-99.99,,,0.00,weatherlink.com 1.10,2013-10-20 01:32:00,
2013-10-19 21:47:00,48.6,45.0,30.02,NNE,17,0.0,-999.0,86,-99.99,,,0.00,weatherlink.com 1.10,2013-10-20 01:47:00,
2013-10-19 22:02:00,47.8,44.0,30.02,NE,41,0.0,-999.0,87,-99.99,,,0.00,weatherlink.com 1.10,2013-10-20 02:02:00,
2013-10-19 22:17:00,47.6,44.0,30.03,North,1,0.0,-999.0,87,-99.99,,,0.00,weatherlink.com 1.10,2013-10-20 02:17:00,
2013-10-19 22:32:00,47.0,43.0,30.03,SE,133,0.0,-999.0,87,-99.99,,,0.00,weatherlink.com 1.10,2013-10-20 02:32:00,
2013-10-19 22:47:00,46.5,43.0,30.03,SE,135,0.0,-999.0,88,-99.99,,,0.00,weatherlink.com 1.10,2013-10-20 02:47:00,
2013-10-19 23:02:00,46.3,43.0,30.03,South,174,0.0,-999.0,87,-99.99,,,0.00,weatherlink.com 1.10,2013-10-20 03:02:00,
2013-10-19 23:17:00,45.6,42.0,30.03,South,191,0.0,-999.0,88,-99.99,,,0.00,weatherlink.com 1.10,2013-10-20 03:17:00,
2013-10-19 23:32:00,45.1,42.0,30.04,SW,229,0.0,-999.0,88,-99.99,,,0.00,weatherlink.com 1.10,2013-10-20 03:32:00,
2013-10-19 23:47:00,44.7,42.0,30.04,SW,229,0.0,-999.0,89,-99.99,,,0.00,weatherlink.com 1.10,2013-10-20 03:47:00,